Time;durP1;ratioP1;P1;durP2;ratioP2;P2;SDS_P1;SDS_P2;PMS_P1;PMS_P2;Temp;Humidity;BMP_temperature;BMP_pressure;BME280_temperature;BME280_humidity;BME280_pressure;Samples;Min_cycle;Max_cycle;Signal;HPM_P1;HPM_P2
2022/09/03 00:01:49;;;;;;;9.70;1.40;;;17.00;64.20;;;;;;4950683;28;210179;-72
2022/09/03 00:04:24;;;;;;;6.57;1.15;;;17.00;64.30;;;;;;4971211;28;20061;-71
2022/09/03 00:07:00;;;;;;;5.80;1.10;;;16.90;64.40;;;;;;4960793;28;208260;-70
2022/09/03 00:09:36;;;;;;;5.72;1.15;;;16.90;64.50;;;;;;4988173;28;20057;-71
2022/09/03 00:12:13;;;;;;;4.63;1.10;;;16.90;64.70;;;;;;4927706;28;206585;-71
2022/09/03 00:14:46;;;;;;;8.10;1.20;;;16.80;65.00;;;;;;5003409;28;20046;-70
2022/09/03 00:17:19;;;;;;;6.85;1.30;;;16.80;64.90;;;;;;4945979;28;205562;-72
2022/09/03 00:19:54;;;;;;;8.68;1.20;;;16.70;65.00;;;;;;4993010;28;20042;-72
2022/09/03 00:22:34;;;;;;;4.70;1.17;;;16.70;65.20;;;;;;4919530;28;206426;-72
2022/09/03 00:25:04;;;;;;;7.55;1.40;;;16.70;65.40;;;;;;4910629;28;210717;-72
2022/09/03 00:27:37;;;;;;;4.97;1.10;;;16.60;65.40;;;;;;4983048;28;20073;-70
2022/09/03 00:30:09;;;;;;;8.03;1.10;;;16.60;66.20;;;;;;4918340;28;218509;-71
2022/09/03 00:33:01;;;;;;;5.07;1.05;;;16.50;65.70;;;;;;4953774;28;20042;-71
2022/09/03 00:35:33;;;;;;;5.10;1.13;;;16.50;66.00;;;;;;4919088;28;209861;-71
2022/09/03 00:37:59;;;;;;;6.43;1.20;;;16.40;65.90;;;;;;4952813;28;20055;-71
2022/09/03 00:40:41;;;;;;;6.00;1.08;;;16.40;66.10;;;;;;4934581;28;209067;-71
2022/09/03 00:43:33;;;;;;;7.55;1.20;;;16.30;66.40;;;;;;4962756;28;20070;-70
2022/09/03 00:46:25;;;;;;;5.45;1.20;;;16.30;66.50;;;;;;4918412;28;211640;-71
2022/09/03 00:48:54;;;;;;;6.45;1.10;;;16.30;66.60;;;;;;4946872;28;20050;-71
2022/09/03 00:51:43;;;;;;;5.75;1.23;;;16.20;66.70;;;;;;4928699;28;206959;-71
2022/09/03 00:54:09;;;;;;;3.83;0.93;;;16.10;66.90;;;;;;4963502;28;20066;-71
2022/09/03 00:56:54;;;;;;;7.68;1.15;;;16.10;67.00;;;;;;4911009;28;210584;-71
2022/09/03 00:59:51;;;;;;;8.45;1.10;;;16.10;67.10;;;;;;4958103;28;20055;-71
2022/09/03 01:02:39;;;;;;;6.25;1.00;;;16.10;67.50;;;;;;4915748;28;266740;-70
2022/09/03 01:05:24;;;;;;;4.13;0.93;;;16.00;67.60;;;;;;4925506;28;209363;-72
2022/09/03 01:08:08;;;;;;;5.45;1.00;;;15.90;68.00;;;;;;4961350;28;20424;-71
2022/09/03 01:10:52;;;;;;;5.35;0.90;;;16.00;67.70;;;;;;4920640;28;209390;-71
2022/09/03 01:13:48;;;;;;;4.15;1.10;;;15.90;67.80;;;;;;4953672;28;20070;-72
2022/09/03 01:16:32;;;;;;;5.03;1.08;;;16.00;67.90;;;;;;4904658;28;205216;-71
2022/09/03 01:19:24;;;;;;;5.47;1.05;;;15.90;67.80;;;;;;4944506;29;20513;-71
2022/09/03 01:22:18;;;;;;;9.30;1.17;;;16.00;68.60;;;;;;4900301;28;206540;-71
2022/09/03 01:25:02;;;;;;;8.60;1.20;;;15.90;67.90;;;;;;4950053;28;20046;-72
2022/09/03 01:28:08;;;;;;;5.05;1.08;;;15.90;68.20;;;;;;4891916;28;193351;-71
2022/09/03 01:30:40;;;;;;;6.32;1.10;;;15.90;68.00;;;;;;4875538;28;206265;-72
2022/09/03 01:33:16;;;;;;;4.72;1.00;;;15.90;67.90;;;;;;4946018;28;20102;-71
2022/09/03 01:36:11;;;;;;;4.90;1.10;;;16.00;68.00;;;;;;4883158;28;208650;-71
2022/09/03 01:38:59;;;;;;;5.28;1.08;;;16.00;68.40;;;;;;4923066;28;20078;-70
2022/09/03 01:44:19;;;;;;;6.18;1.10;;;16.00;68.30;;;;;;4935740;28;20085;-70
2022/09/03 01:46:51;;;;;;;8.20;0.95;;;16.00;68.20;;;;;;4898431;28;205940;-71
2022/09/03 01:49:33;;;;;;;6.68;1.10;;;16.00;68.30;;;;;;4943065;28;20047;-71
2022/09/03 01:52:13;;;;;;;4.78;1.00;;;16.10;68.30;;;;;;4882856;28;208266;-70
2022/09/03 01:55:18;;;;;;;4.30;1.10;;;16.10;68.40;;;;;;4932065;28;20067;-71
2022/09/03 01:57:55;;;;;;;6.15;1.00;;;16.10;68.60;;;;;;4860405;29;205936;-71
2022/09/03 02:00:22;;;;;;;5.15;1.02;;;16.10;68.30;;;;;;4857326;29;205602;-69
2022/09/03 02:02:50;;;;;;;6.00;1.10;;;16.10;68.50;;;;;;4909801;29;20052;-71
2022/09/03 02:05:22;;;;;;;6.90;1.08;;;16.10;68.60;;;;;;4883681;29;210055;-70
2022/09/03 02:08:06;;;;;;;6.32;1.00;;;16.10;68.60;;;;;;4960890;28;20050;-71
2022/09/03 02:10:53;;;;;;;7.00;1.15;;;16.20;68.80;;;;;;4944608;28;209584;-71
2022/09/03 02:13:23;;;;;;;5.28;0.90;;;16.10;68.80;;;;;;4971885;28;20086;-70
2022/09/03 02:15:51;;;;;;;8.07;1.10;;;16.10;68.90;;;;;;4933452;28;209305;-70
2022/09/03 02:18:25;;;;;;;6.35;1.10;;;16.10;69.10;;;;;;4979622;28;20054;-70
2022/09/03 02:20:53;;;;;;;5.93;1.00;;;16.10;69.00;;;;;;4939684;28;205298;-71
2022/09/03 02:23:20;;;;;;;4.53;0.80;;;16.10;69.10;;;;;;4963603;28;20061;-71
2022/09/03 02:25:53;;;;;;;5.03;1.00;;;16.10;69.20;;;;;;4939822;28;209439;-72
2022/09/03 02:28:21;;;;;;;6.05;1.10;;;16.10;69.30;;;;;;4986621;28;20702;-71
2022/09/03 02:30:47;;;;;;;2.97;0.82;;;16.00;69.30;;;;;;4935695;28;207291;-69
2022/09/03 02:33:14;;;;;;;4.47;1.05;;;16.00;69.40;;;;;;4986689;28;20050;-71
2022/09/03 02:35:41;;;;;;;7.63;1.05;;;16.00;69.50;;;;;;4943062;28;207328;-71
2022/09/03 02:38:09;;;;;;;4.75;1.10;;;16.00;69.70;;;;;;4971656;28;20093;-72
2022/09/03 02:40:36;;;;;;;4.28;1.08;;;16.00;69.80;;;;;;4937847;28;205716;-70
2022/09/03 02:43:07;;;;;;;5.97;0.90;;;16.00;69.90;;;;;;4979492;28;20073;-71
2022/09/03 02:45:37;;;;;;;4.28;1.00;;;16.00;70.00;;;;;;4937698;28;225699;-71
2022/09/03 02:48:03;;;;;;;5.38;1.00;;;16.00;70.10;;;;;;4971004;28;20047;-71
2022/09/03 02:50:29;;;;;;;6.20;1.38;;;15.90;70.20;;;;;;4942668;28;206375;-71
2022/09/03 02:52:55;;;;;;;6.05;1.10;;;16.00;70.30;;;;;;4993059;28;20061;-71
2022/09/03 02:55:21;;;;;;;5.70;1.05;;;16.00;70.40;;;;;;4935285;28;210489;-71
2022/09/03 02:57:47;;;;;;;5.45;1.15;;;15.90;70.50;;;;;;4980809;28;20050;-71
2022/09/03 03:00:14;;;;;;;4.25;1.08;;;15.90;70.60;;;;;;4937541;28;209525;-71
2022/09/03 03:02:40;;;;;;;6.03;1.00;;;15.90;70.80;;;;;;4978684;28;20058;-71
2022/09/03 03:05:08;;;;;;;6.20;1.20;;;15.90;71.00;;;;;;4939563;28;209068;-71
2022/09/03 03:07:38;;;;;;;5.90;1.20;;;15.90;71.20;;;;;;4968550;28;20531;-72
2022/09/03 03:10:04;;;;;;;4.10;1.00;;;15.90;71.30;;;;;;4942683;28;218910;-72
2022/09/03 03:12:30;;;;;;;4.53;1.15;;;15.90;71.40;;;;;;4995390;28;20052;-71
2022/09/03 03:14:56;;;;;;;5.57;1.02;;;15.80;71.60;;;;;;4958834;28;209468;-71
2022/09/03 03:17:22;;;;;;;9.00;1.42;;;15.80;71.90;;;;;;4956486;28;139241;-70
2022/09/03 03:19:48;;;;;;;5.95;1.10;;;15.80;71.90;;;;;;4979718;28;20063;-70
2022/09/03 03:22:14;;;;;;;9.48;1.30;;;15.80;72.20;;;;;;4935214;28;208897;-71
2022/09/03 03:24:41;;;;;;;6.70;1.20;;;15.80;72.30;;;;;;4984011;28;20425;-70
2022/09/03 03:27:09;;;;;;;6.57;1.27;;;15.70;72.40;;;;;;4930519;28;205273;-71
2022/09/03 03:29:36;;;;;;;7.47;1.25;;;15.70;72.50;;;;;;4999264;28;20058;-71
2022/09/03 03:32:02;;;;;;;4.05;1.08;;;15.80;72.70;;;;;;4942989;28;209459;-71
2022/09/03 03:34:28;;;;;;;7.97;1.10;;;15.70;72.80;;;;;;4984152;28;20079;-72
2022/09/03 03:36:55;;;;;;;5.15;1.02;;;15.80;72.90;;;;;;4940655;28;199747;-72
2022/09/03 03:39:21;;;;;;;6.05;1.20;;;15.70;73.00;;;;;;4977922;28;20062;-72
2022/09/03 03:41:47;;;;;;;7.50;1.10;;;15.70;73.30;;;;;;4955718;28;209646;-71
2022/09/03 03:44:14;;;;;;;6.78;1.10;;;15.80;73.20;;;;;;4981446;28;20053;-71
2022/09/03 03:46:40;;;;;;;6.78;1.10;;;15.70;73.30;;;;;;4935225;28;212071;-71
2022/09/03 03:49:07;;;;;;;4.25;1.00;;;15.70;73.30;;;;;;4980274;28;20523;-72
2022/09/03 03:51:35;;;;;;;6.47;1.13;;;15.70;73.30;;;;;;4927010;28;206522;-71
2022/09/03 03:54:02;;;;;;;6.85;1.25;;;15.70;73.40;;;;;;4977534;28;20062;-72
2022/09/03 03:56:28;;;;;;;4.43;1.00;;;15.70;73.50;;;;;;4938689;28;204721;-72
2022/09/03 03:58:54;;;;;;;7.68;1.13;;;15.70;73.80;;;;;;4984420;28;20050;-70
2022/09/03 04:01:23;;;;;;;5.45;1.25;;;15.70;73.70;;;;;;4935734;28;210670;-71
2022/09/03 04:03:49;;;;;;;4.47;1.10;;;15.70;74.00;;;;;;4973938;28;20050;-71
2022/09/03 04:06:18;;;;;;;7.97;1.30;;;15.70;74.00;;;;;;4939895;28;209074;-73
2022/09/03 04:08:46;;;;;;;8.85;1.30;;;15.70;74.10;;;;;;4961390;28;20050;-71
2022/09/03 04:11:14;;;;;;;7.43;1.20;;;15.70;74.30;;;;;;4940482;28;208908;-71
2022/09/03 04:13:42;;;;;;;4.25;1.20;;;15.70;74.40;;;;;;4981606;28;20061;-71
2022/09/03 04:16:11;;;;;;;5.53;1.15;;;15.70;74.50;;;;;;4910802;28;209426;-72
2022/09/03 04:18:38;;;;;;;9.38;1.52;;;15.70;74.60;;;;;;4974723;28;20057;-72
2022/09/03 04:21:15;;;;;;;6.47;1.35;;;15.70;74.80;;;;;;4933444;28;207834;-71
2022/09/03 04:23:43;;;;;;;4.65;1.15;;;15.70;74.90;;;;;;4988742;28;20061;-71
2022/09/03 04:26:12;;;;;;;5.32;1.13;;;15.60;75.00;;;;;;4945276;28;208781;-72
2022/09/03 04:28:39;;;;;;;4.70;1.08;;;15.60;75.10;;;;;;4974982;28;20546;-71
2022/09/03 04:31:08;;;;;;;6.93;1.20;;;15.60;75.30;;;;;;4952047;28;212863;-72
2022/09/03 04:33:37;;;;;;;5.70;1.10;;;15.50;75.50;;;;;;4982931;28;20050;-71
2022/09/03 04:36:07;;;;;;;4.45;1.00;;;15.50;75.70;;;;;;4936493;28;207611;-71
2022/09/03 04:38:34;;;;;;;5.75;1.20;;;15.50;76.00;;;;;;4978135;28;20066;-72
2022/09/03 04:41:01;;;;;;;5.05;1.10;;;15.40;76.20;;;;;;4930292;28;208423;-71
2022/09/03 04:43:28;;;;;;;5.13;1.10;;;15.40;76.40;;;;;;4980807;28;20081;-70
2022/09/03 04:46:02;;;;;;;7.03;1.30;;;15.30;76.80;;;;;;4940524;28;205426;-72
2022/09/03 04:48:30;;;;;;;4.53;1.20;;;15.30;77.20;;;;;;4980235;28;20515;-72
2022/09/03 04:51:05;;;;;;;7.18;1.50;;;15.30;77.50;;;;;;4948569;28;209671;-71
2022/09/03 04:53:36;;;;;;;4.68;1.25;;;15.30;77.80;;;;;;4994303;28;20431;-71
2022/09/03 04:56:11;;;;;;;5.28;1.45;;;15.20;78.10;;;;;;4942406;28;211436;-71
2022/09/03 04:58:37;;;;;;;5.57;1.45;;;15.30;78.60;;;;;;4981333;28;20051;-71
2022/09/03 05:01:08;;;;;;;8.60;1.40;;;15.20;78.70;;;;;;4938345;28;205706;-71
2022/09/03 05:03:36;;;;;;;5.60;1.40;;;15.20;79.10;;;;;;4984410;28;20515;-71
2022/09/03 05:06:04;;;;;;;6.63;1.20;;;15.20;79.40;;;;;;4938717;28;209536;-69
2022/09/03 05:08:32;;;;;;;10.57;1.50;;;15.20;79.80;;;;;;4991247;28;20058;-71
2022/09/03 05:10:59;;;;;;;4.78;1.30;;;15.20;80.10;;;;;;4955987;28;207426;-71
2022/09/03 05:13:26;;;;;;;5.60;1.27;;;15.10;80.40;;;;;;4977665;28;20050;-72
2022/09/03 05:15:52;;;;;;;5.60;1.50;;;15.10;80.90;;;;;;4935029;28;209082;-71
2022/09/03 05:18:19;;;;;;;6.20;1.45;;;15.10;81.20;;;;;;4976308;28;20047;-71
2022/09/03 05:20:46;;;;;;;6.80;1.52;;;15.10;81.70;;;;;;4950513;28;209621;-71
2022/09/03 05:23:12;;;;;;;6.18;1.52;;;15.00;82.10;;;;;;4984093;28;20788;-72
2022/09/03 05:25:38;;;;;;;6.50;1.35;;;14.90;82.20;;;;;;4934850;28;210909;-71
2022/09/03 05:28:04;;;;;;;9.18;1.60;;;15.00;82.60;;;;;;4966785;28;20841;-71
2022/09/03 05:30:30;;;;;;;5.90;1.40;;;15.00;83.00;;;;;;4937871;28;205535;-71
2022/09/03 05:32:56;;;;;;;8.80;1.55;;;15.00;83.40;;;;;;4986889;28;20051;-70
2022/09/03 05:35:23;;;;;;;5.85;1.40;;;15.00;83.80;;;;;;4938646;28;206549;-71
2022/09/03 05:37:49;;;;;;;7.97;1.77;;;15.00;84.30;;;;;;4983109;28;20119;-72
2022/09/03 05:40:15;;;;;;;7.85;1.75;;;15.00;84.60;;;;;;4945227;28;208547;-71
2022/09/03 05:42:41;;;;;;;6.43;1.40;;;15.10;85.30;;;;;;4984114;28;20050;-69
2022/09/03 05:45:09;;;;;;;8.37;1.67;;;15.00;85.40;;;;;;4945468;28;210477;-71
2022/09/03 05:47:39;;;;;;;6.95;1.50;;;15.10;85.70;;;;;;4965906;28;20057;-69
2022/09/03 05:50:09;;;;;;;6.28;1.63;;;15.10;85.90;;;;;;4933866;28;211885;-71
2022/09/03 05:52:36;;;;;;;6.78;1.52;;;15.10;86.40;;;;;;4992458;28;20047;-72
2022/09/03 05:55:04;;;;;;;6.80;1.57;;;15.10;86.70;;;;;;4940718;28;208898;-72
2022/09/03 05:57:30;;;;;;;8.43;1.63;;;15.10;87.10;;;;;;4992750;28;20055;-71
2022/09/03 05:59:56;;;;;;;8.85;1.88;;;15.10;87.50;;;;;;4956401;28;212508;-71
2022/09/03 06:02:22;;;;;;;6.60;1.70;;;15.10;88.00;;;;;;4982356;28;27415;-72
2022/09/03 06:04:49;;;;;;;5.90;1.60;;;15.10;88.30;;;;;;4983469;28;20054;-72
2022/09/03 06:07:16;;;;;;;7.00;1.75;;;15.10;89.10;;;;;;4943361;28;206105;-71
2022/09/03 06:09:42;;;;;;;8.02;1.63;;;15.10;89.50;;;;;;4981077;28;20522;-72
2022/09/03 06:12:08;;;;;;;6.90;1.60;;;15.10;89.70;;;;;;4951857;28;210674;-70
2022/09/03 06:14:34;;;;;;;6.15;1.63;;;15.10;90.00;;;;;;4975878;28;20065;-71
2022/09/03 06:17:00;;;;;;;6.75;1.80;;;15.20;90.20;;;;;;4937745;28;206725;-70
2022/09/03 06:19:26;;;;;;;11.35;1.90;;;15.30;90.30;;;;;;4981181;28;20062;-70
2022/09/03 06:21:52;;;;;;;6.43;1.70;;;15.30;90.50;;;;;;4945928;28;207006;-71
2022/09/03 06:24:22;;;;;;;7.05;1.85;;;15.30;90.60;;;;;;4976027;28;20629;-71
2022/09/03 06:26:49;;;;;;;5.82;1.63;;;15.40;90.70;;;;;;4938000;28;203716;-71
2022/09/03 06:29:17;;;;;;;7.53;1.70;;;15.40;90.90;;;;;;4982004;28;20388;-71
2022/09/03 06:31:43;;;;;;;6.95;1.60;;;15.60;91.20;;;;;;4941035;28;215925;-70
2022/09/03 06:34:09;;;;;;;7.28;1.90;;;15.70;91.30;;;;;;4976811;28;20061;-71
2022/09/03 06:36:35;;;;;;;6.35;1.65;;;15.90;91.20;;;;;;4946028;28;218724;-69
2022/09/03 06:39:02;;;;;;;7.65;1.80;;;16.00;91.10;;;;;;4986509;28;20061;-72
2022/09/03 06:41:32;;;;;;;6.07;1.50;;;16.10;91.30;;;;;;4943570;28;222727;-71
2022/09/03 06:44:04;;;;;;;6.93;1.60;;;16.40;91.10;;;;;;4984110;28;20062;-70
2022/09/03 06:46:33;;;;;;;8.32;1.80;;;16.80;90.70;;;;;;4932152;28;216963;-71
2022/09/03 06:49:00;;;;;;;6.45;1.63;;;17.20;90.10;;;;;;4982823;28;20058;-71
2022/09/03 06:51:28;;;;;;;6.35;1.70;;;17.60;89.10;;;;;;4926227;28;206302;-71
2022/09/03 06:54:09;;;;;;;7.95;1.73;;;17.60;87.60;;;;;;4977603;28;20379;-70
2022/09/03 06:56:36;;;;;;;6.00;1.73;;;17.90;86.60;;;;;;4954860;28;215534;-70
2022/09/03 06:59:13;;;;;;;4.97;1.42;;;17.80;86.10;;;;;;4982397;28;20059;-69
2022/09/03 07:01:40;;;;;;;7.05;1.70;;;18.00;85.60;;;;;;4946987;28;210233;-67
2022/09/03 07:04:07;;;;;;;5.93;1.58;;;18.40;85.10;;;;;;4984526;28;20055;-68
2022/09/03 07:06:39;;;;;;;5.85;1.50;;;18.70;83.90;;;;;;4933705;28;206745;-67
2022/09/03 07:09:10;;;;;;;6.40;1.48;;;19.10;82.90;;;;;;4981747;28;20050;-69
2022/09/03 07:11:37;;;;;;;;;;;19.30;81.30;;;;;;4932988;28;213603;-68
2022/09/03 07:14:04;;;;;;;7.32;1.50;;;19.60;80.30;;;;;;4975409;28;19937;-68
2022/09/03 07:16:35;;;;;;;9.30;1.58;;;19.90;81.70;;;;;;4932315;28;210539;-69
2022/09/03 07:19:03;;;;;;;7.90;1.60;;;20.20;80.00;;;;;;4963729;28;20085;-69
2022/09/03 07:21:32;;;;;;;6.68;1.38;;;20.50;80.00;;;;;;4940478;28;209065;-67
2022/09/03 07:23:59;;;;;;;6.63;1.80;;;20.70;78.60;;;;;;4976616;28;20582;-70
2022/09/03 07:26:30;;;;;;;5.72;1.48;;;20.90;77.20;;;;;;4922430;28;215622;-69
2022/09/03 07:28:58;;;;;;;6.25;1.42;;;20.80;77.10;;;;;;4988368;28;20054;-67
2022/09/03 07:31:32;;;;;;;8.40;1.63;;;21.20;76.90;;;;;;4933575;28;219126;-69
2022/09/03 07:34:02;;;;;;;8.60;1.52;;;21.50;76.10;;;;;;4980439;28;20065;-69
2022/09/03 07:36:29;;;;;;;5.60;1.48;;;21.80;75.30;;;;;;4934908;28;207714;-69
2022/09/03 07:38:56;;;;;;;6.55;1.35;;;21.90;73.70;;;;;;4983296;28;20054;-68
2022/09/03 07:41:24;;;;;;;6.43;1.40;;;22.10;73.90;;;;;;4940416;28;220056;-69
2022/09/03 07:43:51;;;;;;;9.63;1.58;;;22.30;72.60;;;;;;4979885;28;20050;-69
2022/09/03 07:46:23;;;;;;;7.38;1.48;;;22.40;72.10;;;;;;4936985;28;203963;-69
2022/09/03 07:48:54;;;;;;;6.88;1.30;;;22.50;71.70;;;;;;4983968;28;20054;-67
2022/09/03 07:51:25;;;;;;;6.45;1.60;;;22.70;70.90;;;;;;4929639;28;209992;-68
2022/09/03 07:53:53;;;;;;;7.45;1.20;;;22.90;70.90;;;;;;4985986;28;20058;-67
2022/09/03 07:56:20;;;;;;;7.15;1.60;;;23.10;70.50;;;;;;4946968;28;212963;-68
2022/09/03 07:58:47;;;;;;;8.45;1.40;;;23.40;69.40;;;;;;4986560;28;20054;-68
2022/09/03 08:01:16;;;;;;;7.28;1.42;;;23.60;69.40;;;;;;4942938;28;216052;-68
2022/09/03 08:03:44;;;;;;;8.65;1.45;;;23.80;69.50;;;;;;4991443;28;20074;-69
2022/09/03 08:06:11;;;;;;;5.88;1.30;;;24.10;68.40;;;;;;4944519;28;209975;-68
2022/09/03 08:08:38;;;;;;;6.10;1.50;;;24.30;67.60;;;;;;4987158;28;20057;-69
2022/09/03 08:11:11;;;;;;;8.13;1.40;;;24.40;66.60;;;;;;4955247;28;215199;-70
2022/09/03 08:13:38;;;;;;;6.30;1.33;;;24.50;66.70;;;;;;4990153;28;20062;-69
2022/09/03 08:16:04;;;;;;;8.18;1.50;;;24.70;65.90;;;;;;4930677;28;218522;-69
2022/09/03 08:18:36;;;;;;;5.53;1.30;;;24.80;65.40;;;;;;4969865;28;20055;-69
2022/09/03 08:21:09;;;;;;;8.40;1.27;;;25.10;65.10;;;;;;4940207;28;210035;-70
2022/09/03 08:23:40;;;;;;;6.30;1.38;;;25.40;64.50;;;;;;4989368;28;20061;-70
2022/09/03 08:26:07;;;;;;;5.22;1.15;;;25.70;63.60;;;;;;4929795;28;224557;-69
2022/09/03 08:28:37;;;;;;;5.35;1.30;;;26.00;63.50;;;;;;4981075;28;20685;-70
2022/09/03 08:31:13;;;;;;;6.40;1.20;;;26.10;61.40;;;;;;4904572;28;87787;-69
2022/09/03 08:33:41;;;;;;;6.22;1.30;;;26.20;61.50;;;;;;4984416;28;20061;-69
2022/09/03 08:36:22;;;;;;;5.97;1.20;;;26.30;61.50;;;;;;4936304;28;161399;-70
2022/09/03 08:38:53;;;;;;;4.97;1.10;;;26.50;60.00;;;;;;4972872;28;20419;-69
2022/09/03 08:41:32;;;;;;;7.93;1.30;;;26.50;60.20;;;;;;4927003;28;210731;-70
2022/09/03 08:44:15;;;;;;;8.07;1.60;;;26.50;59.00;;;;;;4978299;28;20439;-69
2022/09/03 08:46:56;;;;;;;5.75;1.30;;;26.50;58.40;;;;;;4946802;28;211566;-71
2022/09/03 08:49:45;;;;;;;6.38;1.30;;;26.50;59.00;;;;;;4982195;28;20051;-69
2022/09/03 08:52:41;;;;;;;6.40;1.17;;;26.80;58.80;;;;;;4930765;28;212518;-69
2022/09/03 08:55:15;;;;;;;7.50;1.50;;;27.20;57.50;;;;;;4939564;28;215491;-69
2022/09/03 08:57:47;;;;;;;8.95;1.20;;;27.40;58.40;;;;;;4993867;28;20065;-69
2022/09/03 09:00:14;;;;;;;5.32;1.20;;;27.80;58.40;;;;;;4934332;28;217060;-69
2022/09/03 09:03:14;;;;;;;6.28;1.15;;;28.10;57.20;;;;;;4979121;28;20058;-69
2022/09/03 09:05:54;;;;;;;10.07;1.30;;;28.40;56.00;;;;;;4935868;28;212122;-69
2022/09/03 09:08:34;;;;;;;6.68;1.23;;;28.50;56.80;;;;;;4986988;28;20046;-70
2022/09/03 09:11:19;;;;;;;9.07;1.20;;;28.70;55.00;;;;;;4942489;28;210168;-66
2022/09/03 09:13:49;;;;;;;7.78;1.17;;;28.70;55.60;;;;;;4984692;28;20431;-68
2022/09/03 09:16:26;;;;;;;5.22;1.10;;;28.80;55.50;;;;;;4950052;28;209272;-68
2022/09/03 09:19:32;;;;;;;6.03;1.10;;;29.10;54.80;;;;;;4984750;28;20050;-68
2022/09/03 09:22:02;;;;;;;6.20;1.10;;;29.30;52.60;;;;;;4870655;29;138922;-69
2022/09/03 09:24:38;;;;;;;6.43;1.10;;;29.30;53.50;;;;;;4925407;29;20044;-68
2022/09/03 09:27:05;;;;;;;12.55;1.20;;;29.60;53.30;;;;;;4871875;29;207174;-68
2022/09/03 09:29:35;;;;;;;8.68;1.42;;;29.80;53.10;;;;;;4919577;29;20417;-68
2022/09/03 09:32:03;;;;;;;10.63;1.25;;;29.90;52.00;;;;;;4867035;29;206385;-68
2022/09/03 09:34:35;;;;;;;7.20;1.48;;;29.90;52.30;;;;;;4921518;29;20103;-70
2022/09/03 09:37:04;;;;;;;5.32;1.02;;;30.10;50.30;;;;;;4878193;29;221642;-70
2022/09/03 09:39:31;;;;;;;6.38;1.20;;;30.10;51.00;;;;;;4907860;29;20058;-67
2022/09/03 09:42:10;;;;;;;6.78;1.25;;;30.20;51.00;;;;;;4882213;29;209287;-69
2022/09/03 09:44:39;;;;;;;6.70;1.20;;;30.40;50.70;;;;;;4901742;29;20079;-69
2022/09/03 09:47:19;;;;;;;6.60;1.58;;;30.50;51.20;;;;;;4847707;29;166323;-68
2022/09/03 09:49:45;;;;;;;;;;;30.80;51.10;;;;;;4924280;29;20135;-68
2022/09/03 09:52:14;;;;;;;5.85;1.17;;;30.90;50.10;;;;;;4886660;29;209551;-68
2022/09/03 09:54:42;;;;;;;8.02;1.20;;;31.10;50.50;;;;;;4926016;29;20592;-70
2022/09/03 09:57:24;;;;;;;7.13;1.17;;;31.40;49.80;;;;;;4875973;29;206099;-70
2022/09/03 10:00:12;;;;;;;6.78;1.17;;;31.60;49.40;;;;;;4955350;28;20430;-69
2022/09/03 10:02:47;;;;;;;8.38;1.10;;;31.70;48.60;;;;;;4925828;28;206079;-69
2022/09/03 10:05:26;;;;;;;6.88;1.20;;;31.70;49.10;;;;;;4936612;28;209695;-69
2022/09/03 10:08:03;;;;;;;5.30;1.10;;;31.90;48.00;;;;;;4983175;28;20107;-70
2022/09/03 10:10:36;;;;;;;4.97;1.13;;;32.10;46.90;;;;;;4936554;28;215275;-69
2022/09/03 10:13:08;;;;;;;10.40;1.20;;;32.30;47.50;;;;;;4993030;28;20601;-70
2022/09/03 10:16:10;;;;;;;7.60;1.25;;;32.20;46.10;;;;;;4927190;28;212284;-70
2022/09/03 10:18:50;;;;;;;7.75;1.40;;;32.10;46.60;;;;;;4984678;28;20050;-70
2022/09/03 10:21:23;;;;;;;6.70;1.33;;;32.00;45.80;;;;;;4930026;28;215755;-70
2022/09/03 10:23:53;;;;;;;8.07;1.20;;;31.90;46.10;;;;;;4985619;28;20050;-70
2022/09/03 10:26:28;;;;;;;9.77;1.20;;;31.90;46.40;;;;;;4934159;28;232875;-67
2022/09/03 10:28:57;;;;;;;6.18;1.10;;;32.10;46.70;;;;;;4983880;28;20092;-72
2022/09/03 10:31:52;;;;;;;9.18;1.30;;;32.20;46.20;;;;;;4946555;28;211654;-72
2022/09/03 10:34:48;;;;;;;5.57;1.08;;;32.40;46.40;;;;;;4984213;28;20499;-70
2022/09/03 10:37:33;;;;;;;6.40;1.20;;;32.70;45.30;;;;;;4952000;28;211097;-70
2022/09/03 10:40:11;;;;;;;8.57;1.10;;;32.90;45.10;;;;;;4946753;28;211126;-70
2022/09/03 10:43:07;;;;;;;5.03;1.00;;;33.00;45.10;;;;;;4990249;28;20054;-70
2022/09/03 10:46:05;;;;;;;8.80;1.00;;;33.00;45.00;;;;;;4940368;28;225408;-71
2022/09/03 10:48:39;;;;;;;10.77;1.20;;;33.00;44.40;;;;;;4985204;28;20050;-71
2022/09/03 10:51:10;;;;;;;6.25;1.17;;;32.80;44.10;;;;;;4940514;28;241313;-75
2022/09/03 10:53:52;;;;;;;12.02;1.20;;;32.70;44.30;;;;;;4971975;28;20062;-72
2022/09/03 10:56:32;;;;;;;5.88;1.10;;;33.00;44.80;;;;;;4926634;28;228432;-71
2022/09/03 10:59:16;;;;;;;;;;;33.20;44.00;;;;;;4948764;28;20066;-70
2022/09/03 11:02:23;;;;;;;7.25;1.23;;;33.40;43.90;;;;;;4915060;28;157545;-71
2022/09/03 11:05:07;;;;;;;9.85;1.33;;;33.70;43.20;;;;;;4911394;29;20044;-72
2022/09/03 11:07:42;;;;;;;6.18;1.20;;;34.00;44.00;;;;;;4900943;28;227416;-68
2022/09/03 11:10:20;;;;;;;5.87;1.20;;;34.10;42.40;;;;;;4898865;28;221331;-68
2022/09/03 11:12:58;;;;;;;7.22;1.10;;;34.00;42.80;;;;;;4929810;29;20047;-71
2022/09/03 11:15:32;;;;;;;11.63;1.35;;;34.30;41.20;;;;;;4896670;28;207031;-70
2022/09/03 11:18:20;;;;;;;9.32;1.13;;;34.00;42.10;;;;;;4941668;28;20211;-69
2022/09/03 11:20:49;;;;;;;4.95;1.00;;;34.10;41.80;;;;;;4899919;28;216921;-68
2022/09/03 11:23:17;;;;;;;7.97;1.00;;;34.30;42.00;;;;;;4939162;28;20166;-68
2022/09/03 11:25:51;;;;;;;4.78;0.90;;;34.40;42.60;;;;;;4903961;28;153377;-67
2022/09/03 11:28:27;;;;;;;5.50;1.00;;;34.80;42.00;;;;;;4940246;28;20951;-69
2022/09/03 11:31:16;;;;;;;7.90;1.20;;;35.00;41.20;;;;;;4905340;28;219836;-70
2022/09/03 11:34:15;;;;;;;6.53;1.17;;;35.10;40.50;;;;;;4947929;28;20066;-69
2022/09/03 11:36:41;;;;;;;4.90;0.88;;;35.10;40.70;;;;;;4885508;28;206157;-69
2022/09/03 11:39:33;;;;;;;10.00;1.13;;;35.20;41.40;;;;;;4947278;28;20086;-69
2022/09/03 11:42:09;;;;;;;7.40;1.02;;;35.50;39.90;;;;;;4919117;28;228684;-69
2022/09/03 11:44:43;;;;;;;8.80;1.10;;;35.30;39.50;;;;;;5007070;28;20405;-69
2022/09/03 11:47:16;;;;;;;6.07;1.10;;;35.40;39.70;;;;;;4930296;28;215889;-69
2022/09/03 11:49:51;;;;;;;9.80;1.20;;;35.40;39.50;;;;;;4992112;28;20407;-70
2022/09/03 11:52:29;;;;;;;6.85;1.00;;;35.40;39.50;;;;;;4964375;28;153990;-69
2022/09/03 11:54:55;;;;;;;6.13;1.02;;;35.60;39.10;;;;;;4984904;28;210501;-68
2022/09/03 11:57:29;;;;;;;10.00;1.27;;;35.50;39.60;;;;;;4940118;28;206986;-69
2022/09/03 12:00:10;;;;;;;5.57;1.23;;;35.30;39.40;;;;;;4946133;28;213938;-68
2022/09/03 12:02:43;;;;;;;6.97;1.10;;;35.40;39.00;;;;;;4921721;28;206379;-70
2022/09/03 12:05:47;;;;;;;5.63;1.10;;;35.40;38.30;;;;;;4910418;28;225703;-69
2022/09/03 12:08:35;;;;;;;6.35;0.90;;;35.50;38.50;;;;;;4976481;28;20054;-69
2022/09/03 12:11:34;;;;;;;4.03;1.00;;;35.50;37.00;;;;;;4958932;28;205615;-69
2022/09/03 12:14:03;;;;;;;5.45;1.08;;;35.50;37.40;;;;;;4926030;29;20060;-71
2022/09/03 12:17:14;;;;;;;5.97;1.20;;;35.70;39.20;;;;;;4874390;29;209941;-71
2022/09/03 12:19:49;;;;;;;6.40;1.00;;;36.00;38.00;;;;;;4927825;29;20054;-70
2022/09/03 12:22:17;;;;;;;6.32;0.90;;;36.10;38.00;;;;;;4883494;28;220008;-70
2022/09/03 12:24:44;;;;;;;9.38;1.00;;;36.00;37.70;;;;;;4925254;29;20059;-69
2022/09/03 12:27:41;;;;;;;5.28;1.00;;;35.80;38.80;;;;;;4886189;28;230293;-71
2022/09/03 12:30:18;;;;;;;8.38;1.10;;;35.70;36.70;;;;;;4842821;29;228482;-70
2022/09/03 12:32:46;;;;;;;6.95;1.13;;;35.60;38.00;;;;;;4891914;29;20056;-70
2022/09/03 12:35:17;;;;;;;5.68;1.00;;;35.70;38.10;;;;;;4823691;29;231958;-69
2022/09/03 12:37:47;;;;;;;6.88;1.08;;;35.60;37.30;;;;;;4873264;29;20063;-71
2022/09/03 12:40:21;;;;;;;5.43;0.90;;;35.70;37.50;;;;;;4852001;29;137545;-69
2022/09/03 12:42:48;;;;;;;3.75;0.80;;;35.90;37.70;;;;;;4870778;29;20442;-69
2022/09/03 12:45:19;;;;;;;6.93;1.20;;;35.90;38.00;;;;;;4853278;29;206622;-71
2022/09/03 12:47:45;;;;;;;5.47;0.90;;;35.90;38.30;;;;;;4886074;29;20049;-70
2022/09/03 12:50:23;;;;;;;6.05;0.98;;;36.10;37.70;;;;;;4840845;28;206118;-71
2022/09/03 12:53:01;;;;;;;8.45;1.35;;;36.30;37.40;;;;;;4936554;28;20062;-70
2022/09/03 12:55:49;;;;;;;6.85;1.00;;;36.40;37.20;;;;;;4887511;28;209313;-70
2022/09/03 12:58:18;;;;;;;6.88;1.00;;;36.30;37.40;;;;;;4933046;28;20059;-67
2022/09/03 13:00:55;;;;;;;7.55;1.40;;;36.20;37.30;;;;;;4888342;28;210033;-69
2022/09/03 13:03:49;;;;;;;5.93;1.02;;;36.40;37.50;;;;;;4930657;28;20055;-72
2022/09/03 13:06:20;;;;;;;5.38;1.00;;;36.40;37.10;;;;;;4923368;28;184388;-72
2022/09/03 13:09:02;;;;;;;5.95;0.93;;;36.30;37.10;;;;;;4985615;28;20058;-71
2022/09/03 13:11:32;;;;;;;6.32;1.00;;;36.50;36.80;;;;;;4933096;28;206140;-71
2022/09/03 13:14:09;;;;;;;8.15;0.90;;;36.60;37.10;;;;;;4978056;28;20058;-73
2022/09/03 13:16:44;;;;;;;5.88;1.00;;;36.70;36.60;;;;;;4942735;28;222373;-72
2022/09/03 13:19:16;;;;;;;8.70;1.20;;;36.80;36.90;;;;;;4982401;28;20069;-72